Time;durP1;ratioP1;P1;durP2;ratioP2;P2;SDS_P1;SDS_P2;PMS_P1;PMS_P2;Temp;Humidity;BMP_temperature;BMP_pressure;BME280_temperature;BME280_humidity;BME280_pressure;Samples;Min_cycle;Max_cycle;Signal;HPM_P1;HPM_P2
2021/04/17 00:01:08;;;;;;;0.65;0.47;;;;;;;25.46;26.64;97115.34;5064734;28;20028;-25
2021/04/17 00:03:34;;;;;;;1.15;0.52;;;;;;;25.46;26.44;97110.09;5063177;28;20032;-26
2021/04/17 00:05:59;;;;;;;3.72;0.40;;;;;;;25.45;26.53;97109.25;5065268;28;20035;-24
2021/04/17 00:08:25;;;;;;;1.40;0.50;;;;;;;25.47;26.51;97105.72;5063040;28;20039;-25
2021/04/17 00:10:52;;;;;;;0.40;0.40;;;;;;;25.46;26.48;97102.22;5057193;28;20051;-28
2021/04/17 00:13:18;;;;;;;0.82;0.50;;;;;;;25.46;26.34;97099.59;5069271;28;20048;-25
2021/04/17 00:15:43;;;;;;;1.00;0.30;;;;;;;25.45;26.46;97103.16;5068753;28;20608;-26
2021/04/17 00:18:08;;;;;;;0.90;0.50;;;;;;;25.46;26.52;97096.97;5068377;28;20032;-25
2021/04/17 00:20:34;;;;;;;1.83;0.57;;;;;;;25.45;26.39;97098.75;5063110;28;20032;-28
2021/04/17 00:22:59;;;;;;;1.65;0.60;;;;;;;25.45;26.46;97098.75;5064032;28;20024;-25
2021/04/17 00:25:25;;;;;;;0.85;0.40;;;;;;;25.46;26.39;97099.59;5067009;28;20043;-25
2021/04/17 00:27:50;;;;;;;1.02;0.40;;;;;;;25.45;26.56;97096.13;5065903;28;20038;-28
2021/04/17 00:30:16;;;;;;;1.17;0.40;;;;;;;25.46;26.57;97094.34;5064196;28;20854;-22
2021/04/17 00:32:41;;;;;;;0.85;0.60;;;;;;;25.45;26.50;97092.66;5065256;28;20039;-26
2021/04/17 00:35:07;;;;;;;0.70;0.32;;;;;;;25.45;26.53;97087.41;5062804;28;20055;-21
2021/04/17 00:37:33;;;;;;;1.25;0.38;;;;;;;25.45;26.42;97090.03;5068245;28;20116;-27
2021/04/17 00:39:58;;;;;;;1.13;0.40;;;;;;;25.45;26.68;97076.94;5059175;28;20452;-25
2021/04/17 00:42:23;;;;;;;1.00;0.40;;;;;;;25.44;26.47;97081.31;5069577;28;20040;-24
2021/04/17 00:44:49;;;;;;;0.93;0.60;;;;;;;25.44;26.41;97072.59;5065032;28;20040;-28
2021/04/17 00:47:14;;;;;;;0.25;0.25;;;;;;;25.45;26.48;97076.94;5066891;28;20036;-25
2021/04/17 00:49:39;;;;;;;2.95;0.30;;;;;;;25.43;26.27;97069.13;5063585;28;20378;-25
2021/04/17 00:52:05;;;;;;;0.50;0.40;;;;;;;25.44;26.53;97075.22;5062499;28;20032;-26
2021/04/17 00:54:31;;;;;;;1.02;0.52;;;;;;;25.43;26.54;97074.38;5067438;28;20035;-26
2021/04/17 00:56:56;;;;;;;1.40;0.40;;;;;;;25.44;26.64;97069.97;5067711;28;20062;-24
2021/04/17 00:59:21;;;;;;;0.85;0.50;;;;;;;25.43;26.54;97068.25;5066697;28;20040;-21
2021/04/17 01:01:47;;;;;;;0.85;0.40;;;;;;;25.42;26.43;97067.44;5058075;28;20225;-24
2021/04/17 01:04:35;;;;;;;0.55;0.40;;;;;;;25.43;26.46;97068.25;5062809;28;20040;-24
2021/04/17 01:07:33;;;;;;;0.43;0.40;;;;;;;25.43;26.41;97068.25;5062599;28;20047;-25
2021/04/17 01:10:26;;;;;;;0.98;0.38;;;;;;;25.42;26.46;97066.56;5062687;28;20651;-25
2021/04/17 01:12:54;;;;;;;0.40;0.40;;;;;;;25.42;26.66;97066.56;5068816;28;20127;-29
2021/04/17 01:15:20;;;;;;;0.88;0.40;;;;;;;25.41;26.71;97065.72;5061491;28;20039;-26
2021/04/17 01:17:48;;;;;;;0.40;0.40;;;;;;;25.40;26.56;97064.00;5065734;28;20028;-26
2021/04/17 01:20:18;;;;;;;0.52;0.25;;;;;;;25.40;26.51;97058.75;5047893;28;20028;-26
2021/04/17 01:23:12;;;;;;;2.33;0.40;;;;;;;25.41;26.42;97054.38;5062263;28;20044;-25
2021/04/17 01:26:00;;;;;;;0.40;0.40;;;;;;;25.41;26.69;97060.50;5050251;28;22567;-27
2021/04/17 01:28:27;;;;;;;0.77;0.38;;;;;;;25.40;26.53;97064.00;5060393;28;20110;-26
2021/04/17 01:30:53;;;;;;;0.50;0.40;;;;;;;25.40;26.60;97061.38;5064915;28;20055;-24
2021/04/17 01:33:18;;;;;;;0.68;0.40;;;;;;;25.39;26.50;97057.06;5084094;28;20434;-26
2021/04/17 01:35:45;;;;;;;0.50;0.40;;;;;;;25.39;26.40;97061.44;5065633;28;20021;-29
2021/04/17 01:38:21;;;;;;;0.80;0.40;;;;;;;25.39;26.42;97057.06;5067514;28;20031;-28
2021/04/17 01:40:48;;;;;;;0.55;0.30;;;;;;;25.40;26.71;97047.44;5065505;28;20056;-25
2021/04/17 01:43:14;;;;;;;0.98;0.50;;;;;;;25.39;26.56;97049.19;5083919;28;20036;-24
2021/04/17 01:45:39;;;;;;;1.95;0.52;;;;;;;25.40;26.70;97050.06;5053430;28;20223;-27
2021/04/17 01:48:05;;;;;;;1.95;0.50;;;;;;;25.38;26.52;97044.03;5049121;28;20540;-28
2021/04/17 01:50:31;;;;;;;0.65;0.50;;;;;;;25.39;26.60;97045.72;5044434;28;20031;-23
2021/04/17 01:52:57;;;;;;;0.98;0.40;;;;;;;25.39;26.33;97050.97;5063279;28;20069;-28
2021/04/17 01:55:22;;;;;;;0.40;0.35;;;;;;;25.38;26.56;97047.50;5059710;28;20062;-27
2021/04/17 01:57:48;;;;;;;1.23;0.40;;;;;;;25.38;26.44;97046.66;5061477;28;20043;-27
2021/04/17 02:00:14;;;;;;;0.80;0.30;;;;;;;25.39;26.51;97040.47;5058398;28;20035;-28
2021/04/17 02:02:39;;;;;;;0.70;0.40;;;;;;;25.38;26.56;97039.63;5065901;28;20632;-25
2021/04/17 02:05:05;;;;;;;1.77;0.55;;;;;;;25.38;26.54;97036.16;5066250;28;20077;-25
2021/04/17 02:07:31;;;;;;;1.08;0.50;;;;;;;25.38;26.49;97030.91;5066651;28;20614;-27
2021/04/17 02:09:56;;;;;;;0.60;0.40;;;;;;;25.39;26.46;97029.97;5066317;28;20020;-24
2021/04/17 02:12:21;;;;;;;0.85;0.32;;;;;;;25.38;26.58;97028.28;5067390;28;20031;-25
2021/04/17 02:14:47;;;;;;;0.45;0.40;;;;;;;25.39;26.50;97035.22;5062072;28;20028;-25
2021/04/17 02:17:18;;;;;;;0.50;0.50;;;;;;;25.38;26.65;97036.16;5059726;28;20055;-26
2021/04/17 02:19:46;;;;;;;0.30;0.30;;;;;;;25.39;26.55;97040.47;5051406;28;20117;-25
2021/04/17 02:22:11;;;;;;;1.08;0.47;;;;;;;25.39;26.44;97037.84;5065449;28;20040;-23
2021/04/17 02:24:37;;;;;;;0.32;0.30;;;;;;;25.38;26.63;97044.03;5040719;28;20059;-27
2021/04/17 02:27:02;;;;;;;0.30;0.30;;;;;;;25.38;26.44;97038.78;5064077;28;20532;-28
2021/04/17 02:29:27;;;;;;;1.15;0.45;;;;;;;25.37;26.42;97037.94;5062357;28;20039;-26
2021/04/17 02:31:53;;;;;;;1.65;0.40;;;;;;;25.37;26.70;97031.84;5057694;28;20519;-28
2021/04/17 02:34:19;;;;;;;0.85;0.60;;;;;;;25.38;26.38;97030.91;5059316;28;20868;-25
2021/04/17 02:36:44;;;;;;;0.75;0.30;;;;;;;25.38;26.55;97028.28;5058494;28;20369;-25
2021/04/17 02:39:10;;;;;;;0.93;0.40;;;;;;;25.37;26.42;97031.84;5063065;28;20036;-25
2021/04/17 02:41:35;;;;;;;0.50;0.45;;;;;;;25.37;26.49;97031.84;5061422;28;20384;-28
2021/04/17 02:44:00;;;;;;;0.47;0.40;;;;;;;25.37;26.54;97037.06;5062435;28;20516;-26
2021/04/17 02:46:26;;;;;;;0.30;0.30;;;;;;;25.37;26.41;97035.31;5066347;28;20041;-27
2021/04/17 02:48:51;;;;;;;0.68;0.30;;;;;;;25.38;26.49;97033.53;5062616;28;20036;-24
2021/04/17 02:51:17;;;;;;;1.05;0.60;;;;;;;25.37;26.66;97034.44;5054194;28;20024;-26
2021/04/17 02:53:42;;;;;;;0.70;0.30;;;;;;;25.37;26.63;97034.44;5054100;28;20020;-27
2021/04/17 02:56:08;;;;;;;0.50;0.40;;;;;;;25.31;26.71;97023.34;5062919;28;20040;-25
2021/04/17 02:58:33;;;;;;;0.30;0.30;;;;;;;25.36;26.72;97028.34;5063044;28;20028;-28
2021/04/17 03:00:59;;;;;;;0.57;0.40;;;;;;;25.35;26.66;97033.69;5059586;28;20029;-24
2021/04/17 03:03:24;;;;;;;0.47;0.38;;;;;;;25.36;26.44;97036.22;5067825;28;20453;-24
2021/04/17 03:05:50;;;;;;;0.60;0.30;;;;;;;25.36;26.50;97035.38;5066247;28;20020;-26
2021/04/17 03:08:15;;;;;;;0.40;0.40;;;;;;;25.36;26.56;97035.38;5060862;28;20039;-24
2021/04/17 03:10:40;;;;;;;0.50;0.50;;;;;;;25.35;26.43;97034.53;5066434;28;20039;-24
2021/04/17 03:13:06;;;;;;;0.70;0.50;;;;;;;25.35;26.64;97033.69;5063957;28;20046;-27
2021/04/17 03:15:32;;;;;;;0.50;0.30;;;;;;;25.35;26.69;97034.53;5067628;28;20025;-26
2021/04/17 03:17:57;;;;;;;0.52;0.40;;;;;;;25.35;26.63;97028.44;5068310;28;20082;-26
2021/04/17 03:20:23;;;;;;;0.50;0.32;;;;;;;25.36;26.62;97030.13;5057607;28;20608;-25
2021/04/17 03:22:48;;;;;;;0.30;0.30;;;;;;;25.35;26.52;97028.44;5055312;28;20036;-26
2021/04/17 03:25:13;;;;;;;0.55;0.40;;;;;;;25.35;26.59;97023.19;5062061;28;20081;-24
2021/04/17 03:27:39;;;;;;;0.30;0.30;;;;;;;25.34;26.57;97013.59;5069659;28;20024;-27
2021/04/17 03:30:07;;;;;;;0.40;0.40;;;;;;;25.35;26.63;97012.72;5066090;28;20115;-27
2021/04/17 03:32:33;;;;;;;0.30;0.30;;;;;;;25.34;26.51;97000.50;5063631;28;20040;-23
2021/04/17 03:34:58;;;;;;;0.82;0.50;;;;;;;25.35;26.46;97017.94;5068812;28;20029;-26
2021/04/17 03:37:24;;;;;;;0.73;0.38;;;;;;;25.34;26.70;97018.84;5074930;27;20101;-27
2021/04/17 03:39:49;;;;;;;1.48;0.40;;;;;;;25.34;26.42;97016.22;5068772;28;20047;-27
2021/04/17 03:42:14;;;;;;;0.30;0.30;;;;;;;25.34;26.66;97016.22;5070618;28;20048;-25
2021/04/17 03:44:40;;;;;;;0.50;0.30;;;;;;;25.34;26.44;97021.47;5066436;28;20102;-27
2021/04/17 03:47:05;;;;;;;0.40;0.40;;;;;;;25.31;26.70;97018.09;5067630;28;20231;-25
2021/04/17 03:49:31;;;;;;;0.40;0.32;;;;;;;25.33;26.71;97019.78;5068470;28;20397;-25
2021/04/17 03:51:56;;;;;;;0.30;0.30;;;;;;;25.33;26.52;97022.41;5057982;28;20024;-25
2021/04/17 03:54:21;;;;;;;0.70;0.40;;;;;;;25.33;26.61;97017.16;5067224;28;20044;-26
2021/04/17 03:56:47;;;;;;;0.28;0.20;;;;;;;25.31;26.53;97023.34;5061005;28;20028;-29
2021/04/17 03:59:12;;;;;;;0.63;0.45;;;;;;;25.31;26.52;97023.34;5071557;28;20495;-27
2021/04/17 04:01:37;;;;;;;0.57;0.40;;;;;;;25.31;26.50;97020.72;5061770;28;20063;-28
2021/04/17 04:04:03;;;;;;;0.50;0.40;;;;;;;25.31;26.50;97028.59;5066398;28;23525;-24
2021/04/17 04:06:28;;;;;;;0.60;0.60;;;;;;;25.31;26.51;97027.72;5065907;28;20028;-26
2021/04/17 04:08:54;;;;;;;0.30;0.30;;;;;;;25.30;26.56;97021.63;5066448;28;20035;-25
2021/04/17 04:11:19;;;;;;;0.47;0.30;;;;;;;25.30;26.53;97032.13;5067497;28;20054;-26
2021/04/17 04:13:45;;;;;;;10.45;0.80;;;;;;;25.27;26.54;97020.91;5069772;28;20032;-29
2021/04/17 04:16:10;;;;;;;0.30;0.30;;;;;;;25.31;26.64;97032.97;5066774;28;20035;-24
2021/04/17 04:18:35;;;;;;;0.20;0.20;;;;;;;25.30;26.66;97037.38;5062747;28;21040;-26
2021/04/17 04:21:01;;;;;;;0.32;0.25;;;;;;;25.31;26.58;97046.09;5066053;28;20086;-28
2021/04/17 04:23:26;;;;;;;1.33;0.40;;;;;;;25.29;26.65;97035.66;5062909;28;20054;-24
2021/04/17 04:25:51;;;;;;;0.65;0.50;;;;;;;25.29;26.66;97038.28;5064160;28;20069;-28
2021/04/17 04:28:17;;;;;;;0.55;0.50;;;;;;;25.30;26.47;97037.38;5063749;28;20514;-27
2021/04/17 04:30:42;;;;;;;0.52;0.40;;;;;;;25.29;26.62;97035.66;5063738;28;20044;-24
2021/04/17 04:33:08;;;;;;;0.43;0.30;;;;;;;25.29;26.71;97038.28;5067526;28;20029;-26
2021/04/17 04:35:33;;;;;;;0.40;0.40;;;;;;;25.29;26.72;97034.81;5066434;28;20036;-27
2021/04/17 04:37:59;;;;;;;0.40;0.40;;;;;;;25.29;26.68;97033.03;5059890;28;20036;-23
2021/04/17 04:40:24;;;;;;;0.45;0.40;;;;;;;25.28;26.58;97028.72;5063742;28;20553;-25
2021/04/17 04:42:49;;;;;;;0.35;0.35;;;;;;;25.29;26.45;97030.41;5071189;28;20115;-26
2021/04/17 04:45:15;;;;;;;0.73;0.38;;;;;;;25.27;26.70;97037.50;5067968;28;20451;-25
2021/04/17 04:47:40;;;;;;;0.28;0.28;;;;;;;25.28;26.69;97044.47;5065796;28;20077;-26
2021/04/17 04:50:07;;;;;;;0.75;0.40;;;;;;;25.28;26.58;97041.84;5063059;28;20077;-26
2021/04/17 04:52:32;;;;;;;0.43;0.35;;;;;;;25.28;26.62;97039.22;5064086;28;20032;-26
2021/04/17 04:54:58;;;;;;;0.30;0.20;;;;;;;25.29;26.61;97035.66;5066324;28;20028;-25
2021/04/17 04:57:23;;;;;;;8.93;1.77;;;;;;;25.28;26.47;97043.63;5083433;27;20063;-26
2021/04/17 04:59:49;;;;;;;2.80;1.20;;;;;;;25.27;26.56;97045.38;5067615;28;20036;-23
2021/04/17 05:02:14;;;;;;;1.40;0.70;;;;;;;25.26;26.61;97041.06;5070593;28;20028;-24
2021/04/17 05:04:39;;;;;;;1.00;0.63;;;;;;;25.26;26.53;97042.81;5065776;28;20070;-27
2021/04/17 05:07:05;;;;;;;1.00;0.50;;;;;;;25.21;26.66;97035.19;5065507;28;20431;-24
2021/04/17 05:09:30;;;;;;;0.52;0.40;;;;;;;25.25;26.49;97049.84;5067560;28;20039;-24
2021/04/17 05:11:56;;;;;;;0.95;0.40;;;;;;;25.25;26.57;97047.22;5066596;28;20028;-26
2021/04/17 05:14:22;;;;;;;0.60;0.40;;;;;;;25.25;26.57;97039.34;5067359;28;20027;-24
2021/04/17 05:16:47;;;;;;;1.65;0.70;;;;;;;25.25;26.53;97044.59;5066195;28;20028;-26
2021/04/17 05:19:13;;;;;;;1.08;0.55;;;;;;;25.25;26.59;97044.59;5060861;28;20036;-24
2021/04/17 05:21:38;;;;;;;1.90;0.52;;;;;;;25.25;26.65;97044.59;5041775;28;20012;-23
2021/04/17 05:24:04;;;;;;;1.10;0.45;;;;;;;25.24;26.74;97048.13;5065391;28;20025;-26
2021/04/17 05:26:29;;;;;;;0.55;0.50;;;;;;;25.24;26.71;97048.13;5043583;28;20145;-28
2021/04/17 05:28:55;;;;;;;0.82;0.60;;;;;;;25.25;26.79;97044.59;5066607;28;20036;-23
2021/04/17 05:31:20;;;;;;;1.48;0.60;;;;;;;25.24;26.62;97045.53;5061911;28;20036;-28
2021/04/17 05:33:45;;;;;;;3.60;1.50;;;;;;;25.21;26.51;97035.19;5069299;28;20593;-26
2021/04/17 05:36:11;;;;;;;4.65;1.10;;;;;;;25.24;26.65;97050.75;5062978;28;20024;-24
2021/04/17 05:38:36;;;;;;;0.95;0.68;;;;;;;25.25;26.67;97054.25;5059893;28;20051;-26
2021/04/17 05:41:02;;;;;;;2.55;0.65;;;;;;;25.24;26.51;97047.31;5062451;28;21137;-25
2021/04/17 05:43:28;;;;;;;1.65;0.57;;;;;;;25.23;26.50;97049.06;5058614;28;20032;-25
2021/04/17 05:45:53;;;;;;;0.60;0.43;;;;;;;25.23;26.72;97056.94;5064461;28;20024;-27
2021/04/17 05:48:18;;;;;;;1.77;0.60;;;;;;;25.23;26.59;97056.94;5060552;28;20515;-26
2021/04/17 05:50:44;;;;;;;1.48;0.65;;;;;;;25.23;26.70;97054.31;5056079;28;20040;-23
2021/04/17 05:53:09;;;;;;;1.23;0.50;;;;;;;25.23;26.70;97051.69;5064894;28;20057;-26
2021/04/17 05:55:35;;;;;;;1.75;0.50;;;;;;;25.23;26.80;97056.94;5064080;28;20036;-24
2021/04/17 05:58:00;;;;;;;1.65;0.50;;;;;;;25.23;26.66;97056.94;5058649;28;20024;-27
2021/04/17 06:00:25;;;;;;;0.70;0.40;;;;;;;25.23;26.70;97062.19;5061505;28;20487;-24
2021/04/17 06:02:54;;;;;;;0.90;0.50;;;;;;;25.23;26.70;97064.81;5065353;28;20537;-25
2021/04/17 06:05:20;;;;;;;0.68;0.60;;;;;;;25.24;26.70;97066.50;5067262;28;20726;-25
2021/04/17 06:07:45;;;;;;;1.00;0.57;;;;;;;25.23;26.75;97059.56;5061616;28;20032;-25
2021/04/17 06:10:11;;;;;;;0.55;0.40;;;;;;;25.24;26.70;97063.03;5071206;28;20043;-28
2021/04/17 06:12:37;;;;;;;0.30;0.30;;;;;;;25.23;26.76;97059.56;5065461;28;20074;-24
2021/04/17 06:15:03;;;;;;;0.82;0.50;;;;;;;25.23;26.72;97062.19;5063434;28;20644;-24
2021/04/17 06:17:29;;;;;;;1.50;0.50;;;;;;;25.24;26.67;97071.75;5063738;28;20036;-26
2021/04/17 06:19:54;;;;;;;0.95;0.50;;;;;;;25.23;26.65;97072.69;5062590;28;20455;-26
2021/04/17 06:22:20;;;;;;;0.73;0.50;;;;;;;25.23;26.67;97071.81;5060527;28;20527;-25
2021/04/17 06:24:45;;;;;;;0.50;0.40;;;;;;;25.23;26.71;97072.69;5068553;28;20047;-26
2021/04/17 06:27:14;;;;;;;1.40;0.55;;;;;;;25.23;26.63;97067.44;5062558;28;20032;-29
2021/04/17 06:29:39;;;;;;;0.82;0.55;;;;;;;25.23;26.85;97067.44;5065536;28;20036;-27
2021/04/17 06:32:05;;;;;;;1.08;0.47;;;;;;;25.23;26.62;97067.44;5059542;28;20040;-24
2021/04/17 06:34:30;;;;;;;1.20;0.47;;;;;;;25.23;27.04;97061.31;5065161;28;20034;-25
2021/04/17 06:36:56;;;;;;;1.55;0.50;;;;;;;25.22;26.74;97065.75;5060237;28;20032;-26
2021/04/17 06:39:22;;;;;;;0.57;0.40;;;;;;;25.23;26.74;97069.19;5061202;28;20038;-25
2021/04/17 06:41:48;;;;;;;2.13;0.50;;;;;;;25.22;26.85;97065.75;5066070;28;20506;-22
2021/04/17 06:44:14;;;;;;;0.65;0.43;;;;;;;25.23;26.92;97067.44;5064904;28;20024;-27
2021/04/17 06:46:40;;;;;;;0.47;0.40;;;;;;;25.23;26.77;97056.06;5067333;28;20472;-25
2021/04/17 06:49:06;;;;;;;0.73;0.52;;;;;;;25.21;26.83;97061.41;5047078;28;20119;-26
2021/04/17 06:51:31;;;;;;;0.57;0.50;;;;;;;25.21;26.93;97065.81;5061513;28;20031;-27
2021/04/17 06:53:57;;;;;;;0.95;0.55;;;;;;;25.22;26.73;97055.25;5074504;28;20028;-22
2021/04/17 06:56:23;;;;;;;1.50;0.50;;;;;;;25.22;26.93;97055.25;5066412;28;20105;-28
2021/04/17 06:58:49;;;;;;;0.68;0.68;;;;;;;25.22;26.85;97052.63;5065920;28;20029;-26
2021/04/17 07:01:14;;;;;;;0.80;0.77;;;;;;;25.22;26.81;97050.00;5061796;28;20032;-25
2021/04/17 07:03:39;;;;;;;6.15;0.93;;;;;;;25.23;26.83;97056.06;5060072;28;20496;-25
2021/04/17 07:06:05;;;;;;;11.07;2.78;;;;;;;25.23;26.47;97050.84;5061702;28;20035;-22
2021/04/17 07:08:30;;;;;;;9.93;3.67;;;;;;;25.20;26.20;97057.06;5060831;28;20031;-28
2021/04/17 07:10:57;;;;;;;3.13;1.63;;;;;;;25.21;26.52;97050.06;5064818;28;20028;-26
2021/04/17 07:13:23;;;;;;;1.67;1.05;;;;;;;25.20;26.66;97051.81;5063667;28;20043;-28
2021/04/17 07:15:48;;;;;;;2.17;1.08;;;;;;;25.18;26.42;97048.44;5063198;28;20032;-25
2021/04/17 07:18:33;;;;;;;2.47;1.00;;;;;;;25.19;26.64;97050.13;5047875;28;20032;-23
2021/04/17 07:21:13;;;;;;;2.47;1.10;;;;;;;25.20;26.55;97051.81;5063121;28;20071;-26
2021/04/17 07:23:41;;;;;;;6.78;0.98;;;;;;;25.21;26.83;97053.56;5061703;28;20028;-25
2021/04/17 07:26:18;;;;;;;2.72;1.20;;;;;;;25.22;26.92;97052.63;5062732;28;20629;-24
2021/04/17 07:29:06;;;;;;;1.88;0.82;;;;;;;25.24;26.91;97052.56;5055226;28;20101;-28
2021/04/17 07:31:35;;;;;;;3.25;1.13;;;;;;;25.24;26.77;97053.38;5051151;28;20080;-30
2021/04/17 07:34:15;;;;;;;6.72;1.25;;;;;;;25.25;26.96;97049.84;5050335;28;20024;-28
2021/04/17 07:36:52;;;;;;;3.83;1.08;;;;;;;25.25;26.84;97049.84;5049780;28;20139;-27
2021/04/17 07:39:36;;;;;;;5.05;1.00;;;;;;;25.26;27.06;97051.56;5050026;28;20091;-28
2021/04/17 07:42:09;;;;;;;2.75;0.95;;;;;;;25.27;27.01;97053.25;5050004;28;20437;-30
2021/04/17 07:44:39;;;;;;;3.95;1.10;;;;;;;25.27;27.00;97058.50;5047694;28;20083;-26
2021/04/17 07:47:05;;;;;;;2.08;1.30;;;;;;;25.29;27.22;97055.81;5063944;28;20074;-22
2021/04/17 07:49:30;;;;;;;7.03;1.38;;;;;;;25.29;27.11;97051.41;5047599;28;21057;-25
2021/04/17 07:52:09;;;;;;;2.47;0.80;;;;;;;25.31;27.15;97054.81;5050148;28;20032;-27
2021/04/17 07:54:35;;;;;;;3.63;0.90;;;;;;;25.31;27.11;97054.81;5048676;28;20584;-28
2021/04/17 07:57:12;;;;;;;4.75;1.10;;;;;;;25.33;27.15;97052.13;5048541;28;20032;-26
2021/04/17 07:59:38;;;;;;;4.70;0.93;;;;;;;25.34;27.35;97047.72;5051037;28;20058;-26
2021/04/17 08:02:04;;;;;;;6.05;1.10;;;;;;;25.34;27.15;97042.47;5062486;28;20032;-25
2021/04/17 08:04:30;;;;;;;4.03;1.00;;;;;;;25.35;27.41;97044.19;5050883;28;20025;-24
2021/04/17 08:06:56;;;;;;;2.03;0.90;;;;;;;25.36;27.32;97040.63;5048532;28;20074;-22
2021/04/17 08:09:22;;;;;;;3.88;1.20;;;;;;;25.37;27.34;97037.06;5045594;28;20028;-24
2021/04/17 08:11:56;;;;;;;2.53;1.23;;;;;;;25.39;27.42;97035.22;5049043;28;20032;-25
2021/04/17 08:14:23;;;;;;;2.83;1.40;;;;;;;25.40;27.21;97034.31;5051905;28;20034;-27
2021/04/17 08:16:48;;;;;;;4.78;1.13;;;;;;;25.42;27.31;97027.22;5050606;28;20032;-27
2021/04/17 08:19:14;;;;;;;2.72;1.05;;;;;;;25.41;27.35;97022.91;5049910;28;20063;-24
2021/04/17 08:21:40;;;;;;;1.80;0.95;;;;;;;25.43;27.50;97035.00;5051134;28;20166;-24
2021/04/17 08:24:06;;;;;;;1.25;0.95;;;;;;;25.44;27.44;97028.00;5048557;28;20028;-25
2021/04/17 08:26:33;;;;;;;3.97;1.40;;;;;;;25.41;27.46;97012.41;5045689;28;20630;-25
2021/04/17 08:28:58;;;;;;;1.95;1.10;;;;;;;25.47;27.47;97022.59;5047341;28;20033;-26
2021/04/17 08:31:25;;;;;;;1.55;0.80;;;;;;;25.47;27.56;97017.34;5047078;28;20039;-27
2021/04/17 08:34:11;;;;;;;1.30;1.10;;;;;;;25.49;27.44;97010.25;5050024;28;20035;-25
2021/04/17 08:36:43;;;;;;;4.43;3.00;;;;;;;25.51;27.32;97013.66;5048671;28;20035;-24
2021/04/17 08:39:34;;;;;;;10.35;6.90;;;;;;;25.43;24.57;97006.16;5061775;28;20032;-24
2021/04/17 08:42:00;;;;;;;10.88;5.47;;;;;;;25.31;24.58;97019.84;5049603;28;20460;-22
2021/04/17 08:44:35;;;;;;;9.38;4.28;;;;;;;25.22;24.60;97018.53;5050130;28;20119;-26
2021/04/17 08:47:02;;;;;;;10.98;3.58;;;;;;;25.16;24.59;97013.56;5047195;28;20032;-26
2021/04/17 08:49:32;;;;;;;9.48;2.63;;;;;;;25.13;24.66;97005.84;5050823;28;20129;-26
2021/04/17 08:52:23;;;;;;;13.20;2.22;;;;;;;25.11;24.86;97003.28;5049057;28;21152;-26
2021/04/17 08:55:01;;;;;;;4.90;1.83;;;;;;;25.12;24.98;97012.00;5047449;28;20669;-25
2021/04/17 08:57:26;;;;;;;6.05;2.10;;;;;;;25.12;25.23;97012.84;5048835;28;20024;-25
2021/04/17 08:59:53;;;;;;;4.38;2.10;;;;;;;25.13;25.17;97011.94;5045876;28;20047;-24
2021/04/17 09:02:19;;;;;;;2.78;1.65;;;;;;;25.15;25.29;97011.88;5028751;28;20039;-24
2021/04/17 09:05:05;;;;;;;5.88;1.83;;;;;;;25.17;25.34;97010.88;5046338;28;20422;-24
2021/04/17 09:07:32;;;;;;;3.65;1.52;;;;;;;25.18;25.48;96999.44;5045065;28;20032;-27
2021/04/17 09:10:23;;;;;;;2.33;1.45;;;;;;;25.22;25.58;97002.78;5045500;28;20028;-27
2021/04/17 09:13:11;;;;;;;2.75;1.45;;;;;;;25.24;25.51;97006.19;5042550;28;20579;-26
2021/04/17 09:16:05;;;;;;;1.65;1.40;;;;;;;25.26;25.46;97004.34;5064878;28;20024;-24
2021/04/17 09:18:33;;;;;;;4.32;1.60;;;;;;;25.28;25.67;97009.53;5046981;28;20028;-25
2021/04/17 09:21:18;;;;;;;3.33;1.40;;;;;;;25.29;25.41;97009.44;5047404;28;20055;-22
2021/04/17 09:23:50;;;;;;;6.55;1.70;;;;;;;25.31;25.58;97004.13;5055940;28;20033;-25
2021/04/17 09:26:31;;;;;;;3.40;1.40;;;;;;;25.34;25.74;97000.50;5059420;28;20058;-22
2021/04/17 09:29:05;;;;;;;7.10;1.20;;;;;;;25.36;25.60;97003.91;5047959;28;20603;-24
2021/04/17 09:31:35;;;;;;;3.05;1.30;;;;;;;25.36;25.96;96993.41;5053641;28;20367;-27
2021/04/17 09:34:06;;;;;;;4.55;1.42;;;;;;;25.38;25.81;96994.19;5055174;28;20040;-26
2021/04/17 09:36:31;;;;;;;5.33;1.43;;;;;;;25.39;25.93;96993.25;5061045;28;20488;-27
2021/04/17 09:38:59;;;;;;;7.50;2.17;;;;;;;25.41;25.95;96994.03;5060445;28;20024;-24
2021/04/17 09:41:48;;;;;;;8.45;2.60;;;;;;;25.42;26.04;96993.09;5068703;28;20115;-26
2021/04/17 09:44:13;;;;;;;11.93;2.47;;;;;;;25.42;26.04;96986.09;5066776;28;21056;-25
2021/04/17 09:46:39;;;;;;;8.30;2.35;;;;;;;25.44;26.11;96991.28;5061351;28;20079;-28
2021/04/17 09:49:04;;;;;;;18.00;3.08;;;;;;;25.44;26.26;96984.22;5062030;28;20064;-27
2021/04/17 09:51:30;;;;;;;8.52;2.50;;;;;;;25.46;26.24;96984.16;5073515;28;20035;-26
2021/04/17 09:54:15;;;;;;;12.23;2.95;;;;;;;25.47;26.16;96983.22;5063858;28;20024;-23
2021/04/17 09:56:42;;;;;;;18.35;3.20;;;;;;;25.48;26.43;96990.19;5066365;28;20040;-24
2021/04/17 09:59:12;;;;;;;11.55;2.95;;;;;;;25.48;26.46;96982.31;5066011;28;20032;-26
2021/04/17 10:01:38;;;;;;;10.32;3.33;;;;;;;25.49;26.27;96978.78;5068073;28;20027;-27
2021/04/17 10:04:04;;;;;;;13.38;3.05;;;;;;;25.50;26.41;96983.09;5064772;28;20083;-26
2021/04/17 10:06:34;;;;;;;16.00;2.90;;;;;;;25.50;26.29;96975.22;5068936;28;20595;-27
2021/04/17 10:09:19;;;;;;;15.02;3.03;;;;;;;25.50;26.34;96972.59;5068722;28;20070;-29
2021/04/17 10:11:45;;;;;;;11.07;3.10;;;;;;;25.52;26.58;96978.59;5068312;28;20031;-23
2021/04/17 10:14:11;;;;;;;15.20;2.83;;;;;;;25.52;26.57;96969.91;5066858;28;20089;-23
2021/04/17 10:16:47;;;;;;;14.63;3.13;;;;;;;25.53;26.56;96969.81;5066844;28;20489;-24
2021/04/17 10:19:19;;;;;;;11.02;2.40;;;;;;;25.54;26.44;96970.66;5068316;28;20162;-29
2021/04/17 10:21:48;;;;;;;11.70;2.85;;;;;;;25.54;26.39;96966.28;5066210;28;20543;-25
2021/04/17 10:24:30;;;;;;;14.00;2.60;;;;;;;25.55;26.42;96964.50;5052721;28;20031;-27
2021/04/17 10:27:10;;;;;;;9.68;2.83;;;;;;;25.55;26.76;96957.47;5067466;28;20166;-24
2021/04/17 10:29:45;;;;;;;7.78;2.70;;;;;;;25.58;26.74;96964.38;5066997;28;20055;-25
2021/04/17 10:32:23;;;;;;;8.05;2.78;;;;;;;25.57;26.48;96960.91;5059995;28;20024;-28
2021/04/17 10:34:54;;;;;;;8.25;2.50;;;;;;;25.57;26.56;96955.66;5063540;28;20024;-25
2021/04/17 10:37:21;;;;;;;9.15;2.70;;;;;;;25.60;26.77;96959.03;5064478;28;20039;-27
2021/04/17 10:40:13;;;;;;;8.20;2.30;;;;;;;25.61;26.65;96950.25;5056970;28;20749;-26
2021/04/17 10:42:46;;;;;;;14.07;2.30;;;;;;;25.62;26.46;96954.59;5058048;28;20123;-27
2021/04/17 10:45:13;;;;;;;14.95;2.75;;;;;;;25.61;26.74;96956.34;5059687;28;21149;-24
2021/04/17 10:47:39;;;;;;;6.60;2.33;;;;;;;25.62;26.57;96951.97;5060991;28;20024;-25
2021/04/17 10:50:19;;;;;;;9.15;2.33;;;;;;;25.62;26.59;96949.34;5065832;28;21095;-27
2021/04/17 10:52:57;;;;;;;9.35;2.30;;;;;;;25.64;26.62;96950.09;5059749;28;20074;-29
2021/04/17 10:55:45;;;;;;;4.80;1.90;;;;;;;25.65;26.62;96941.28;5062646;28;20035;-27
2021/04/17 10:58:22;;;;;;;5.22;2.10;;;;;;;25.65;26.80;96943.91;5061685;28;20154;-25
2021/04/17 11:00:50;;;;;;;6.47;2.03;;;;;;;25.67;26.87;96942.09;5059173;28;20020;-26
2021/04/17 11:03:18;;;;;;;7.57;1.88;;;;;;;25.65;26.80;96936.91;5061648;28;20033;-23
2021/04/17 11:05:45;;;;;;;6.68;1.90;;;;;;;25.67;26.91;96948.16;5062172;28;20028;-25
2021/04/17 11:08:10;;;;;;;5.57;2.05;;;;;;;25.68;26.69;96938.53;5061798;28;20111;-28
2021/04/17 11:10:37;;;;;;;5.65;2.00;;;;;;;25.70;26.79;96944.53;5055865;28;20031;-24
2021/04/17 11:13:04;;;;;;;6.43;2.10;;;;;;;25.70;26.90;96934.03;5063267;28;20028;-25
2021/04/17 11:15:29;;;;;;;6.43;1.58;;;;;;;25.71;26.98;96938.38;5060796;28;20567;-28
2021/04/17 11:18:14;;;;;;;7.68;2.03;;;;;;;25.72;26.99;96926.94;5062990;28;20020;-21
2021/04/17 11:20:53;;;;;;;8.52;2.03;;;;;;;25.74;27.12;96932.13;5060607;28;20024;-26
2021/04/17 11:23:38;;;;;;;4.35;1.80;;;;;;;25.75;27.12;96918.94;5059583;28;20028;-24
2021/04/17 11:26:23;;;;;;;4.88;1.77;;;;;;;25.76;27.06;96927.63;5063984;28;20038;-22
2021/04/17 11:28:51;;;;;;;5.40;1.50;;;;;;;25.76;27.16;96914.50;5064757;28;20024;-22
2021/04/17 11:31:22;;;;;;;5.95;2.83;;;;;;;25.76;27.20;96912.75;5063177;28;20031;-24
2021/04/17 11:33:48;;;;;;;3.33;1.53;;;;;;;25.77;26.95;96910.94;5064976;28;20036;-25
2021/04/17 11:36:14;;;;;;;5.97;2.03;;;;;;;25.78;27.04;96910.88;5066052;28;20063;-27
2021/04/17 11:38:39;;;;;;;7.57;2.05;;;;;;;25.79;27.04;96907.34;5054237;28;20037;-23